Time;durP1;ratioP1;P1;durP2;ratioP2;P2;SDS_P1;SDS_P2;PMS_P1;PMS_P2;Temp;Humidity;BMP_temperature;BMP_pressure;BME280_temperature;BME280_humidity;BME280_pressure;Samples;Min_cycle;Max_cycle;Signal;HPM_P1;HPM_P2
2023/07/19 00:00:47;;;;;;;4.97;4.47;;;26.50;70.70;;;27.12;48.16;95114.63;5078230;28;20559;-72
2023/07/19 00:03:14;;;;;;;4.70;4.30;;;26.40;70.60;;;27.10;48.47;95117.56;5074814;28;20195;-69
2023/07/19 00:05:41;;;;;;;9.63;4.27;;;26.40;70.70;;;27.07;48.54;95123.44;5070267;28;20485;-72
2023/07/19 00:08:09;;;;;;;4.40;4.00;;;26.40;70.90;;;27.03;48.40;95122.25;5068591;28;20458;-71
2023/07/19 00:10:36;;;;;;;4.23;3.93;;;26.40;71.00;;;26.99;48.52;95121.09;5073686;28;21109;-61
2023/07/19 00:13:05;;;;;;;8.17;3.83;;;26.30;71.30;;;26.92;48.79;95115.00;5075020;28;20453;-69
2023/07/19 00:15:33;;;;;;;7.40;4.37;;;26.30;71.50;;;26.88;48.80;95108.41;5071554;28;20481;-60
2023/07/19 00:18:00;;;;;;;5.73;4.07;;;26.20;71.60;;;26.83;48.87;95107.25;5077221;28;20457;-60
2023/07/19 00:20:27;;;;;;;5.43;3.77;;;26.20;71.70;;;26.78;49.00;95107.13;5075104;28;20488;-71
2023/07/19 00:22:55;;;;;;;4.37;4.00;;;26.10;71.80;;;26.74;49.44;95129.44;5072721;28;20466;-70
2023/07/19 00:25:22;;;;;;;4.37;3.97;;;26.10;72.10;;;26.69;49.35;95121.22;5074327;28;20481;-70
2023/07/19 00:27:49;;;;;;;4.67;4.27;;;26.00;72.40;;;26.65;49.71;95116.28;5073867;28;20462;-71
2023/07/19 00:30:18;;;;;;;4.47;4.17;;;26.00;72.50;;;26.62;49.54;95116.72;5075563;28;20603;-59
2023/07/19 00:32:45;;;;;;;9.70;4.13;;;25.90;72.70;;;26.57;49.77;95126.56;5076277;28;21050;-61
2023/07/19 00:35:13;;;;;;;9.97;4.50;;;25.90;72.70;;;26.53;49.73;95117.31;5072634;28;20489;-62
2023/07/19 00:37:40;;;;;;;4.90;4.50;;;25.90;72.80;;;26.48;49.95;95120.72;5072206;28;20577;-61
2023/07/19 00:40:08;;;;;;;11.73;4.30;;;25.80;73.20;;;26.42;50.38;95119.78;5075872;28;20470;-62
2023/07/19 00:42:36;;;;;;;5.73;4.10;;;25.80;73.50;;;26.36;50.68;95119.88;5076596;28;20458;-61
2023/07/19 00:45:04;;;;;;;7.20;4.70;;;25.70;73.90;;;26.28;50.77;95121.06;5075641;28;20879;-62
2023/07/19 00:47:33;;;;;;;5.43;3.97;;;25.60;74.10;;;26.21;51.05;95123.03;5075637;28;20462;-61
2023/07/19 00:50:00;;;;;;;6.10;4.80;;;25.50;74.30;;;26.11;51.08;95121.72;5070149;28;20465;-60
2023/07/19 00:52:27;;;;;;;8.70;4.23;;;25.50;74.70;;;26.05;51.32;95119.13;5070107;28;20454;-61
2023/07/19 00:54:55;;;;;;;4.93;4.40;;;25.40;74.80;;;26.00;51.50;95113.63;5072477;28;20504;-70
2023/07/19 00:57:22;;;;;;;10.70;5.00;;;25.40;74.80;;;25.94;51.49;95121.50;5074983;28;20462;-60
2023/07/19 00:59:49;;;;;;;8.33;4.93;;;25.30;75.00;;;25.89;51.47;95126.78;5078118;28;20481;-60
2023/07/19 01:02:16;;;;;;;4.90;3.97;;;25.20;75.20;;;25.84;51.31;95118.56;5070799;28;20470;-60
2023/07/19 01:04:45;;;;;;;12.33;4.47;;;25.20;76.20;;;25.79;51.54;95114.91;5069305;28;20555;-61
2023/07/19 01:07:12;;;;;;;8.10;4.50;;;25.20;75.50;;;25.74;52.15;95116.41;5072377;28;20776;-61
2023/07/19 01:09:40;;;;;;;4.83;4.30;;;25.10;75.80;;;25.69;52.22;95113.59;5073380;28;20457;-60
2023/07/19 01:12:09;;;;;;;6.80;4.80;;;25.10;76.00;;;25.66;52.31;95108.66;5071641;28;20839;-70
2023/07/19 01:14:37;;;;;;;4.90;4.50;;;25.00;76.80;;;25.62;52.02;95107.47;5076647;28;20493;-61
2023/07/19 01:17:05;;;;;;;5.40;4.20;;;25.00;76.30;;;25.59;51.80;95102.53;5073983;28;20453;-61
2023/07/19 01:19:32;;;;;;;4.47;4.17;;;24.90;76.30;;;25.56;52.68;95108.38;5072533;28;20774;-69
2023/07/19 01:22:01;;;;;;;7.30;4.83;;;24.90;76.60;;;25.52;52.89;95097.25;5072904;28;20463;-61
2023/07/19 01:24:29;;;;;;;10.77;4.87;;;24.90;76.90;;;25.49;52.65;95104.97;5073411;28;20599;-61
2023/07/19 01:26:56;;;;;;;5.63;5.10;;;24.90;77.20;;;25.46;52.66;95113.50;5075721;28;20519;-69
2023/07/19 01:29:24;;;;;;;7.57;4.70;;;24.80;77.50;;;25.44;52.62;95110.19;5076030;28;20445;-59
2023/07/19 01:31:51;;;;;;;12.77;3.93;;;24.80;77.70;;;25.41;53.24;95108.78;5071394;28;20477;-61
2023/07/19 01:34:18;;;;;;;6.20;4.93;;;24.80;77.80;;;25.38;53.07;95107.38;5070680;28;20544;-71
2023/07/19 01:36:46;;;;;;;6.00;4.07;;;24.70;77.90;;;25.37;53.06;95097.63;5077425;28;20485;-69
2023/07/19 01:39:13;;;;;;;7.90;5.13;;;24.70;77.80;;;25.34;52.75;95108.03;5071629;28;20461;-71
2023/07/19 01:41:42;;;;;;;4.43;4.03;;;24.70;78.00;;;25.30;52.91;95110.38;5073780;28;20466;-69
2023/07/19 01:44:09;;;;;;;7.60;4.63;;;24.70;78.20;;;25.26;53.38;95098.38;5071664;28;21001;-60
2023/07/19 01:46:38;;;;;;;6.03;5.50;;;24.70;78.20;;;25.25;53.74;95102.09;5071174;28;20473;-70
2023/07/19 01:49:05;;;;;;;5.37;4.77;;;24.60;78.20;;;25.22;53.29;95108.78;5074978;28;20460;-60
2023/07/19 01:51:32;;;;;;;6.17;5.00;;;24.60;78.60;;;25.20;53.56;95112.75;5076943;28;20482;-61
2023/07/19 01:54:00;;;;;;;9.70;5.13;;;24.60;78.90;;;25.19;53.85;95095.78;5073590;28;20490;-61
2023/07/19 01:56:27;;;;;;;5.70;4.10;;;24.50;79.10;;;25.18;54.05;95096.00;5070070;28;20909;-59
2023/07/19 01:58:56;;;;;;;5.57;4.17;;;24.50;79.10;;;25.16;53.58;95101.59;5075500;28;20458;-62
2023/07/19 02:01:23;;;;;;;6.67;5.17;;;24.50;79.30;;;25.15;54.45;95107.22;5073383;28;20565;-60
2023/07/19 02:03:50;;;;;;;5.67;5.17;;;24.50;79.70;;;25.13;54.00;95103.91;5069176;28;20485;-60
2023/07/19 02:06:18;;;;;;;5.77;4.77;;;24.50;79.90;;;25.11;54.44;95106.00;5073021;28;20465;-70
2023/07/19 02:08:45;;;;;;;4.97;4.43;;;24.50;79.90;;;25.09;54.31;95105.44;5073324;28;20457;-70
2023/07/19 02:11:12;;;;;;;9.43;4.40;;;24.40;80.00;;;25.05;53.84;95092.41;5065661;28;20530;-70
2023/07/19 02:13:40;;;;;;;6.90;4.83;;;24.40;79.90;;;25.01;53.56;95083.13;5069220;28;20458;-60
2023/07/19 02:16:08;;;;;;;5.87;5.37;;;24.40;79.40;;;24.98;53.51;95080.91;5076352;28;20486;-61
2023/07/19 02:18:35;;;;;;;6.03;5.33;;;24.40;79.40;;;24.92;53.58;95079.09;5073516;28;20464;-71
2023/07/19 02:21:03;;;;;;;18.30;5.37;;;24.30;79.30;;;24.88;54.10;95075.25;5077241;28;20486;-69
2023/07/19 02:23:30;;;;;;;5.53;4.90;;;24.30;79.60;;;24.85;53.91;95075.69;5089195;28;20528;-62
2023/07/19 02:25:58;;;;;;;10.17;5.60;;;24.30;79.80;;;24.79;54.21;95073.88;5072187;28;21493;-60
2023/07/19 02:28:25;;;;;;;10.30;5.63;;;24.20;79.90;;;24.74;54.12;95071.88;5071353;28;20535;-70
2023/07/19 02:30:52;;;;;;;7.43;6.10;;;24.20;80.30;;;24.72;54.92;95067.75;5079798;28;21130;-63
2023/07/19 02:33:21;;;;;;;6.90;5.70;;;24.10;80.70;;;24.70;54.94;95068.78;5070149;28;20462;-61
2023/07/19 02:35:54;;;;;;;18.37;8.67;;;24.10;80.90;;;24.68;54.89;95070.06;5072515;28;20527;-60
2023/07/19 02:38:21;;;;;;;12.20;8.90;;;24.10;80.90;;;24.63;54.75;95073.44;5073294;28;20545;-61
2023/07/19 02:40:48;;;;;;;15.23;8.80;;;24.00;81.00;;;24.56;54.78;95064.56;5076399;28;20499;-59
2023/07/19 02:43:16;;;;;;;16.33;8.50;;;24.00;81.20;;;24.50;55.20;95071.66;5071949;28;20458;-70
2023/07/19 02:45:43;;;;;;;11.27;8.20;;;23.90;81.40;;;24.45;55.91;95076.06;5069524;28;20498;-69
2023/07/19 02:48:11;;;;;;;9.70;7.03;;;23.90;81.90;;;24.42;55.83;95077.31;5074901;28;20522;-72
2023/07/19 02:50:45;;;;;;;11.60;6.73;;;23.80;82.20;;;24.41;56.26;95075.66;5065299;28;20481;-71
2023/07/19 02:53:12;;;;;;;10.73;6.60;;;23.80;82.20;;;24.40;55.79;95075.88;5068536;28;20451;-60
2023/07/19 02:55:39;;;;;;;6.37;5.77;;;23.80;82.70;;;24.39;56.28;95072.38;5072324;28;20498;-60
2023/07/19 02:58:07;;;;;;;8.00;6.20;;;23.80;82.80;;;24.38;55.48;95076.09;5071257;28;20893;-60
2023/07/19 03:00:34;;;;;;;7.47;6.17;;;23.80;82.70;;;24.37;55.37;95071.78;5073882;28;20488;-70
2023/07/19 03:03:02;;;;;;;8.50;5.73;;;23.70;82.50;;;24.32;56.04;95072.44;5072983;28;20852;-60
2023/07/19 03:05:29;;;;;;;9.20;5.20;;;23.70;82.60;;;24.33;55.46;95082.16;5072565;28;20474;-59
2023/07/19 03:07:58;;;;;;;7.10;5.47;;;23.70;82.70;;;24.30;56.17;95085.28;5067522;28;20942;-70
2023/07/19 03:10:25;;;;;;;8.50;6.00;;;23.70;82.60;;;24.27;55.55;95074.16;5071788;28;20482;-71
2023/07/19 03:12:52;;;;;;;9.60;5.20;;;23.70;82.60;;;24.24;55.93;95074.59;5070050;28;21433;-70
2023/07/19 03:15:20;;;;;;;6.53;5.80;;;23.60;82.60;;;24.21;55.30;95073.16;5070368;28;20498;-70
2023/07/19 03:17:47;;;;;;;14.30;5.37;;;23.60;82.70;;;24.19;55.68;95075.25;5072826;28;21294;-61
2023/07/19 03:20:14;;;;;;;12.93;5.47;;;23.60;82.80;;;24.18;56.12;95076.28;5072068;28;20470;-71
2023/07/19 03:22:42;;;;;;;11.67;5.80;;;23.60;82.90;;;24.15;55.48;95074.03;5076408;28;20457;-70
2023/07/19 03:25:11;;;;;;;10.73;6.00;;;23.60;83.00;;;24.13;56.19;95073.44;5074563;28;20471;-61
2023/07/19 03:27:39;;;;;;;8.70;6.47;;;23.50;82.80;;;24.08;55.62;95065.22;5076884;28;20484;-69
2023/07/19 03:30:08;;;;;;;11.80;5.10;;;23.50;82.80;;;24.04;55.98;95064.00;5074729;28;20488;-69
2023/07/19 03:32:35;;;;;;;9.03;5.27;;;23.40;82.80;;;23.99;55.46;95052.03;5074951;28;20826;-61
2023/07/19 03:35:03;;;;;;;8.67;6.03;;;23.40;82.90;;;23.96;56.16;95057.84;5071050;28;21197;-62
2023/07/19 03:37:30;;;;;;;10.00;6.10;;;23.40;83.10;;;23.95;55.78;95050.84;5073456;28;20573;-69
2023/07/19 03:39:57;;;;;;;9.00;6.20;;;23.40;83.40;;;23.94;55.57;95033.06;5074715;28;20492;-72
2023/07/19 03:42:26;;;;;;;7.00;4.90;;;23.30;83.30;;;23.93;55.95;95050.22;5072895;28;20520;-71
2023/07/19 03:44:53;;;;;;;12.97;6.00;;;23.30;83.30;;;23.93;56.56;95039.47;5076658;28;20793;-70
2023/07/19 03:47:21;;;;;;;12.00;5.90;;;23.30;83.80;;;23.96;56.77;95038.22;5070983;28;20994;-70
2023/07/19 03:49:48;;;;;;;15.90;5.37;;;23.30;84.10;;;23.97;56.62;95043.38;5078565;28;20469;-70
2023/07/19 03:52:16;;;;;;;13.00;5.67;;;23.30;84.00;;;23.99;56.11;95035.09;5094851;28;20461;-70
2023/07/19 03:54:43;;;;;;;10.73;6.43;;;23.40;84.50;;;24.02;57.14;95033.84;5087906;28;20489;-70
2023/07/19 03:57:10;;;;;;;15.33;6.87;;;23.40;84.90;;;24.05;57.20;95030.72;5072598;28;20470;-71
2023/07/19 03:59:39;;;;;;;5.93;4.90;;;23.40;85.20;;;24.10;56.79;95037.06;5081218;28;20447;-69
2023/07/19 04:02:07;;;;;;;11.87;5.97;;;23.40;85.40;;;24.17;57.19;95045.09;5088433;28;20444;-71
2023/07/19 04:04:34;;;;;;;7.20;5.80;;;23.50;85.50;;;24.24;56.75;95043.16;5086953;28;20446;-70
2023/07/19 04:07:01;;;;;;;13.30;4.70;;;23.60;85.70;;;24.30;56.69;95047.63;5076589;28;20453;-69
2023/07/19 04:09:29;;;;;;;8.53;6.03;;;23.60;85.70;;;24.37;56.66;95042.22;5076433;28;21008;-70
2023/07/19 04:11:56;;;;;;;10.47;6.27;;;23.70;85.50;;;24.41;56.87;95037.22;5070776;28;20441;-71
2023/07/19 04:14:23;;;;;;;12.80;6.67;;;23.80;85.70;;;24.44;56.43;95037.56;5069866;28;20500;-60
2023/07/19 04:16:52;;;;;;;12.13;5.90;;;23.80;85.90;;;24.49;56.48;95028.84;5079610;28;20456;-60
2023/07/19 04:19:19;;;;;;;17.50;5.97;;;23.90;85.80;;;24.55;56.27;95035.22;5072651;28;20454;-67
2023/07/19 04:21:46;;;;;;;22.40;7.90;;;23.90;85.50;;;24.59;56.39;95034.56;5076959;28;20580;-60
2023/07/19 04:24:13;;;;;;;15.53;7.73;;;23.90;85.60;;;24.62;56.05;95031.44;5074103;28;20464;-67
2023/07/19 04:26:41;;;;;;;9.97;7.33;;;24.00;85.40;;;24.67;56.47;95036.94;5070723;28;20482;-61
2023/07/19 04:29:08;;;;;;;16.30;9.77;;;24.00;85.40;;;24.73;55.97;95035.25;5074656;28;20476;-61
2023/07/19 04:31:35;;;;;;;13.67;7.63;;;24.10;85.40;;;24.79;56.50;95036.22;5067886;28;20493;-60
2023/07/19 04:34:04;;;;;;;16.57;8.70;;;24.10;86.20;;;24.84;55.64;95042.56;5066429;28;20458;-61
2023/07/19 04:36:31;;;;;;;19.63;9.10;;;24.20;85.00;;;24.89;55.94;95036.50;5073232;28;20566;-68
2023/07/19 04:38:58;;;;;;;19.33;8.93;;;24.20;84.70;;;24.93;55.51;95045.78;5071160;28;20454;-61
2023/07/19 04:41:26;;;;;;;20.00;10.20;;;24.30;84.60;;;24.98;55.39;95037.84;5076428;28;20543;-67
2023/07/19 04:43:53;;;;;;;19.07;9.60;;;24.30;84.40;;;25.02;55.70;95039.03;5075449;28;20553;-67
2023/07/19 04:46:21;;;;;;;13.03;7.87;;;24.40;84.90;;;25.08;56.10;95034.59;5075269;28;20474;-68
2023/07/19 04:48:48;;;;;;;16.70;8.20;;;24.40;84.70;;;25.12;55.72;95038.50;5073779;28;20446;-69
2023/07/19 04:51:17;;;;;;;19.83;9.03;;;24.50;84.70;;;25.17;55.97;95045.88;5076485;28;20469;-66
2023/07/19 04:53:44;;;;;;;11.93;8.40;;;24.50;84.60;;;25.20;55.72;95040.88;5071519;28;20453;-69
2023/07/19 04:56:11;;;;;;;8.83;7.93;;;24.50;84.60;;;25.27;55.49;95050.72;5067607;28;20490;-60
2023/07/19 04:58:39;;;;;;;11.03;6.00;;;24.60;84.70;;;25.32;55.54;95048.22;5069661;28;20531;-60
2023/07/19 05:01:08;;;;;;;9.07;7.43;;;24.60;84.70;;;25.35;55.53;95048.59;5078177;28;20477;-60
2023/07/19 05:03:35;;;;;;;9.80;7.70;;;24.70;84.70;;;25.39;55.91;95047.09;5074572;28;20506;-60
2023/07/19 05:06:03;;;;;;;22.63;8.47;;;24.70;84.90;;;25.42;56.19;95053.88;5078153;28;20457;-60
2023/07/19 05:08:31;;;;;;;25.07;8.90;;;24.70;85.90;;;25.45;55.90;95050.72;5074850;28;20469;-60
2023/07/19 05:10:59;;;;;;;17.67;8.23;;;24.80;86.10;;;25.45;56.19;95050.72;5074464;28;20469;-61
2023/07/19 05:13:26;;;;;;;14.50;8.53;;;24.80;85.80;;;25.44;55.88;95045.56;5073466;28;20473;-62
2023/07/19 05:15:53;;;;;;;15.60;8.23;;;24.80;85.50;;;25.44;55.91;95037.47;5074639;28;21020;-62
2023/07/19 05:18:21;;;;;;;25.43;8.30;;;24.80;84.90;;;25.43;55.21;95038.56;5073345;28;20469;-60
2023/07/19 05:20:48;;;;;;;29.57;7.67;;;24.80;84.80;;;25.41;55.56;95039.59;5073434;28;20572;-67
2023/07/19 05:23:15;;;;;;;25.27;7.37;;;24.70;84.70;;;25.45;55.73;95034.56;5077518;28;20509;-60
2023/07/19 05:25:44;;;;;;;16.50;8.23;;;24.80;84.90;;;25.52;55.98;95032.59;5070421;28;20919;-60
2023/07/19 05:28:12;;;;;;;15.50;7.87;;;24.80;85.60;;;25.58;55.22;95037.06;5074371;28;20456;-62
2023/07/19 05:30:39;;;;;;;13.77;7.67;;;24.90;85.00;;;25.65;54.92;95031.56;5075990;28;20477;-68
2023/07/19 05:33:06;;;;;;;21.83;8.87;;;24.90;84.30;;;25.73;54.44;95033.97;5069148;28;20458;-62
2023/07/19 05:35:33;;;;;;;14.60;8.10;;;25.00;84.00;;;25.86;54.95;95037.50;5073456;28;20493;-59
2023/07/19 05:38:01;;;;;;;14.97;7.83;;;25.10;84.40;;;25.98;54.40;95030.28;5071084;28;20442;-70
2023/07/19 05:40:28;;;;;;;8.83;7.33;;;25.20;84.20;;;26.16;54.29;95033.94;5077830;28;21107;-71
2023/07/19 05:42:57;;;;;;;12.67;7.47;;;25.40;84.00;;;26.29;53.95;95028.31;5076090;28;20451;-69
2023/07/19 05:45:24;;;;;;;14.87;8.67;;;25.50;83.30;;;26.39;53.51;95025.84;5080572;28;20470;-61
2023/07/19 05:47:51;;;;;;;11.60;8.20;;;25.60;82.50;;;26.52;52.89;95018.56;5071465;28;20453;-61
2023/07/19 05:50:19;;;;;;;20.73;8.37;;;25.80;82.10;;;26.64;53.27;95022.06;5080150;28;20476;-61
2023/07/19 05:52:46;;;;;;;20.30;8.93;;;25.90;82.10;;;26.78;52.86;95030.75;5069323;28;20567;-59
2023/07/19 05:55:14;;;;;;;14.57;7.83;;;26.00;82.00;;;26.95;52.51;95022.75;5080066;28;20906;-71
2023/07/19 05:57:41;;;;;;;9.43;7.33;;;26.10;81.60;;;27.11;52.23;95019.28;5074925;28;20465;-70
2023/07/19 06:00:19;;;;;;;15.90;8.97;;;26.30;81.40;;;27.31;51.91;95015.31;5075750;28;20516;-60
2023/07/19 06:02:46;;;;;;;20.83;8.30;;;26.50;81.00;;;27.48;51.92;95015.41;5069471;28;20446;-60
2023/07/19 06:05:14;;;;;;;26.33;7.80;;;26.70;80.60;;;27.64;51.88;95025.44;5075285;28;20477;-71
2023/07/19 06:07:41;;;;;;;23.03;9.03;;;26.80;80.00;;;27.82;51.07;95028.97;5087885;28;20465;-70
2023/07/19 06:10:09;;;;;;;13.30;8.10;;;27.00;80.20;;;27.99;51.74;95037.13;5076580;28;20564;-60
2023/07/19 06:12:37;;;;;;;17.20;8.87;;;27.10;80.20;;;28.15;51.19;95033.63;5076794;28;20450;-71
2023/07/19 06:15:05;;;;;;;31.80;8.63;;;27.30;80.00;;;28.31;51.11;95031.97;5075771;28;20531;-60
2023/07/19 06:17:34;;;;;;;24.00;8.93;;;27.50;79.50;;;28.49;49.97;95022.75;5074948;28;20488;-60
2023/07/19 06:20:01;;;;;;;12.97;7.73;;;27.60;78.40;;;28.66;49.93;95024.63;5077259;28;20466;-71
2023/07/19 06:22:28;;;;;;;25.83;7.90;;;27.80;78.00;;;28.82;49.11;95023.78;5074897;28;20252;-61
2023/07/19 06:24:56;;;;;;;17.00;7.47;;;28.00;77.20;;;29.00;49.48;95029.94;5078146;28;20220;-61
2023/07/19 06:27:23;;;;;;;18.17;8.43;;;28.20;76.90;;;29.18;49.40;95026.91;5071494;28;20200;-61
2023/07/19 06:29:51;;;;;;;19.50;8.63;;;28.30;76.40;;;29.32;48.22;95022.75;5079162;28;20760;-61
2023/07/19 06:32:18;;;;;;;13.90;8.40;;;28.40;75.90;;;29.46;47.87;95020.47;5075458;28;20203;-70
2023/07/19 06:34:47;;;;;;;16.63;8.00;;;28.60;74.80;;;29.60;47.67;95017.38;5076027;28;20239;-70
2023/07/19 06:37:14;;;;;;;19.80;7.30;;;28.70;74.90;;;29.74;47.92;95015.06;5076103;28;20212;-60
2023/07/19 06:39:42;;;;;;;13.77;7.60;;;28.90;74.50;;;29.89;46.41;95009.81;5073111;28;20303;-71
2023/07/19 06:42:09;;;;;;;15.37;7.67;;;29.00;72.70;;;30.00;47.14;95011.53;5078479;28;20209;-71
2023/07/19 06:44:37;;;;;;;21.70;6.60;;;29.10;72.70;;;30.15;46.55;95020.88;5074384;28;20290;-72
2023/07/19 06:47:05;;;;;;;21.83;7.27;;;29.30;72.70;;;30.27;46.54;95009.81;5077324;28;20253;-71
2023/07/19 06:49:32;;;;;;;19.87;7.07;;;29.40;72.10;;;30.39;46.53;95015.91;5074506;28;20208;-72
2023/07/19 06:52:01;;;;;;;11.10;6.80;;;29.50;72.20;;;30.52;46.05;95012.75;5072367;28;20222;-61
2023/07/19 06:54:28;;;;;;;15.37;7.30;;;29.70;72.30;;;30.64;45.66;95020.66;5072370;28;20208;-60
2023/07/19 06:56:55;;;;;;;10.93;5.63;;;29.80;71.80;;;30.77;45.42;95018.56;5077264;28;20232;-71
2023/07/19 06:59:22;;;;;;;10.20;6.47;;;29.90;71.30;;;30.90;45.06;95012.66;5083775;28;20198;-70
2023/07/19 07:01:50;;;;;;;14.57;6.18;;;30.00;70.70;;;31.02;45.28;95010.56;5076623;28;20227;-58
2023/07/19 07:04:17;;;;;;;12.30;6.30;;;30.10;70.00;;;31.15;44.99;95014.69;5076029;28;20258;-60
2023/07/19 07:06:43;;;;;;;7.78;5.97;;;30.20;69.40;;;31.26;43.73;95020.97;5083229;28;20723;-72
2023/07/19 07:09:14;;;;;;;9.20;6.40;;;30.30;68.90;;;31.35;44.11;95013.13;5077857;28;20291;-72
2023/07/19 07:11:41;;;;;;;10.05;6.40;;;30.50;69.10;;;31.36;44.46;95014.78;5081405;28;20229;-70
2023/07/19 07:14:10;;;;;;;16.67;6.00;;;30.50;68.30;;;31.38;44.02;95021.56;5079314;28;20204;-71
2023/07/19 07:16:37;;;;;;;7.50;6.78;;;30.50;68.00;;;31.48;44.33;95017.22;5083486;28;20234;-70
2023/07/19 07:19:05;;;;;;;13.30;5.75;;;30.60;68.20;;;31.60;44.15;95024.13;5074740;28;20211;-61
2023/07/19 07:21:33;;;;;;;11.05;6.55;;;30.70;68.50;;;31.73;43.99;95016.50;5081538;28;20334;-61
2023/07/19 07:24:00;;;;;;;24.70;13.80;;;30.80;68.60;;;31.85;43.79;95014.31;5077398;28;20212;-60
2023/07/19 07:26:28;;;;;;;11.77;6.60;;;30.90;68.00;;;31.92;43.49;95016.81;5077962;28;20219;-60
2023/07/19 07:28:56;;;;;;;9.52;6.32;;;31.00;67.50;;;32.00;43.21;95016.25;5080696;28;20199;-61
2023/07/19 07:31:23;;;;;;;13.07;6.78;;;31.00;66.80;;;32.10;43.06;95008.13;5077819;28;20281;-71
2023/07/19 07:33:50;;;;;;;12.90;8.85;;;31.20;66.80;;;32.11;43.12;95001.59;5079824;28;20287;-60
2023/07/19 07:36:17;;;;;;;29.45;12.95;;;31.20;66.00;;;32.15;42.68;94994.50;5076325;28;20229;-71
2023/07/19 07:38:45;;;;;;;7.18;6.13;;;31.20;66.10;;;32.23;42.53;94995.88;5080072;28;20592;-60
2023/07/19 07:41:12;;;;;;;12.60;5.93;;;31.30;65.70;;;32.34;42.66;94985.78;5076569;28;20454;-71
2023/07/19 07:43:41;;;;;;;11.10;8.15;;;31.40;65.80;;;32.45;42.75;94990.09;5080723;28;20230;-61
2023/07/19 07:46:08;;;;;;;19.98;5.13;;;31.50;65.50;;;32.47;41.60;94987.09;5073907;28;20228;-60
2023/07/19 07:48:36;;;;;;;6.28;5.68;;;31.50;64.20;;;32.50;39.65;94981.94;5079591;28;20199;-59
2023/07/19 07:51:03;;;;;;;16.67;5.47;;;31.60;61.30;;;32.57;41.38;94978.13;5076853;28;20227;-70
2023/07/19 07:53:31;;;;;;;7.80;5.60;;;31.60;63.00;;;32.69;40.93;94974.03;5074080;28;20291;-64
2023/07/19 07:55:59;;;;;;;8.27;5.75;;;31.70;63.10;;;32.85;40.73;94974.78;5074069;28;20673;-61
2023/07/19 07:58:26;;;;;;;7.00;5.47;;;31.90;62.80;;;32.94;40.92;94974.19;5081548;28;20249;-69
2023/07/19 08:00:55;;;;;;;7.28;5.55;;;32.00;62.20;;;32.98;40.73;94970.63;5077406;28;20236;-72
2023/07/19 08:03:22;;;;;;;31.65;10.35;;;32.10;62.00;;;33.11;40.71;94971.94;5081308;28;20434;-62
2023/07/19 08:05:50;;;;;;;9.98;5.07;;;32.20;62.50;;;33.26;40.27;94968.34;5077669;28;20248;-72
2023/07/19 08:08:17;;;;;;;9.18;5.50;;;32.30;62.30;;;33.47;39.87;94962.78;5083380;28;20203;-71
2023/07/19 08:10:44;;;;;;;12.38;5.65;;;32.50;62.00;;;33.66;40.18;94971.91;5078072;28;20278;-61
2023/07/19 08:13:12;;;;;;;16.48;6.03;;;32.60;61.20;;;33.89;39.87;94964.16;5079367;28;20211;-63
2023/07/19 08:15:39;;;;;;;10.85;5.63;;;32.90;61.10;;;34.10;39.36;94962.06;5077914;28;20216;-61
2023/07/19 08:18:08;;;;;;;9.43;5.68;;;33.10;59.90;;;34.28;38.52;94953.16;5078776;28;20671;-60
2023/07/19 08:20:35;;;;;;;7.60;4.95;;;33.30;60.00;;;34.47;38.18;94964.19;5076958;28;20708;-72
2023/07/19 08:23:02;;;;;;;11.10;5.38;;;33.50;59.40;;;34.63;37.91;94956.63;5082257;28;20239;-71
2023/07/19 08:25:30;;;;;;;6.50;5.07;;;33.70;58.90;;;34.77;38.13;94962.25;5075155;28;20246;-71
2023/07/19 08:27:57;;;;;;;7.13;5.18;;;33.80;59.10;;;34.94;38.69;94961.78;5073324;28;20641;-61
2023/07/19 08:30:25;;;;;;;9.23;5.15;;;34.00;59.40;;;35.15;38.80;94964.22;5075474;28;20225;-73
2023/07/19 08:32:52;;;;;;;18.63;6.97;;;34.20;59.20;;;35.33;38.35;94951.72;5079943;28;21021;-60
2023/07/19 08:35:21;;;;;;;7.25;5.38;;;34.40;59.20;;;35.51;38.00;94953.66;5076784;28;20216;-62
2023/07/19 08:37:48;;;;;;;13.27;6.00;;;34.60;58.70;;;35.68;37.77;94957.75;5076717;28;20227;-61
2023/07/19 08:40:17;;;;;;;5.88;5.28;;;34.70;57.70;;;35.76;36.92;94950.81;5076624;28;20309;-74
2023/07/19 08:42:44;;;;;;;8.55;5.68;;;34.80;57.30;;;35.82;37.02;94941.44;5077993;28;20208;-73
2023/07/19 08:45:12;;;;;;;8.68;5.00;;;34.90;57.70;;;35.92;37.92;94938.53;5080190;28;20235;-72
2023/07/19 08:47:40;;;;;;;6.60;5.88;;;34.90;57.80;;;36.00;37.00;94942.50;5076183;28;20254;-73
2023/07/19 08:50:08;;;;;;;7.65;5.95;;;35.00;57.20;;;35.95;37.18;94927.00;5079188;28;20284;-72
2023/07/19 08:52:38;;;;;;;9.75;5.15;;;35.00;57.10;;;35.90;36.71;94922.41;5074438;28;20204;-62
2023/07/19 08:55:07;;;;;;;8.85;6.00;;;35.00;57.10;;;35.77;36.72;94916.88;5074606;28;20708;-61
2023/07/19 08:57:38;;;;;;;10.73;5.65;;;34.90;56.70;;;35.66;37.02;94921.69;5073891;28;20601;-61
2023/07/19 09:00:07;;;;;;;6.55;5.80;;;34.70;56.90;;;35.73;37.19;94920.19;5079544;28;20786;-61
2023/07/19 09:02:35;;;;;;;13.45;5.70;;;34.80;57.40;;;35.75;37.22;94916.34;5075942;28;20211;-73
2023/07/19 09:05:06;;;;;;;9.52;5.45;;;34.80;57.00;;;35.69;36.91;94908.22;5079322;28;20223;-61
2023/07/19 09:07:33;;;;;;;8.45;5.68;;;34.80;56.80;;;35.64;36.26;94908.31;5073485;28;20212;-72
2023/07/19 09:10:02;;;;;;;12.40;6.80;;;34.70;56.50;;;35.63;37.47;94917.59;5078676;28;20704;-75
2023/07/19 09:12:37;;;;;;;19.58;6.00;;;34.70;56.70;;;35.72;36.21;94924.03;5075464;28;20204;-59
2023/07/19 09:15:06;;;;;;;12.75;5.75;;;34.80;56.70;;;35.86;36.02;94920.56;5079676;28;20311;-74
2023/07/19 09:17:37;;;;;;;5.78;5.18;;;34.90;56.00;;;36.04;35.33;94919.72;5076031;28;20238;-61
2023/07/19 09:20:07;;;;;;;7.47;6.55;;;35.00;55.30;;;36.19;35.97;94901.38;5078362;28;20307;-61
2023/07/19 09:22:36;;;;;;;12.45;5.90;;;35.20;55.10;;;36.34;35.28;94914.81;5079161;28;20302;-62
2023/07/19 09:25:06;;;;;;;10.18;5.88;;;35.40;54.90;;;36.49;35.63;94901.97;5076822;28;20810;-61
2023/07/19 09:27:33;;;;;;;6.90;6.13;;;35.50;54.70;;;36.63;35.53;94894.53;5073542;28;20269;-63
2023/07/19 09:30:00;;;;;;;6.53;5.82;;;35.60;54.80;;;36.78;35.45;94902.47;5074966;28;20224;-73
2023/07/19 09:32:28;;;;;;;7.57;6.28;;;35.80;55.00;;;36.88;35.67;94903.38;5081068;28;20195;-72
2023/07/19 09:34:56;;;;;;;8.00;6.10;;;35.90;54.50;;;36.94;35.14;94896.69;5071593;28;20296;-61
2023/07/19 09:37:25;;;;;;;14.57;6.57;;;36.00;54.60;;;37.01;33.85;94905.28;5077869;28;20227;-72
2023/07/19 09:39:52;;;;;;;25.67;6.63;;;36.00;52.70;;;37.00;34.21;94892.72;5072966;28;20277;-73
2023/07/19 09:42:21;;;;;;;25.42;6.20;;;36.10;53.60;;;37.00;34.67;94895.44;5081892;28;20203;-63
2023/07/19 09:44:49;;;;;;;18.17;6.68;;;36.10;53.30;;;37.02;34.09;94895.94;5074663;28;20235;-72
2023/07/19 09:47:16;;;;;;;10.02;5.68;;;36.10;52.80;;;37.09;34.04;94896.34;5078888;28;20686;-72
2023/07/19 09:49:43;;;;;;;9.18;6.18;;;36.20;52.40;;;37.18;33.61;94893.66;5077574;28;20231;-74
2023/07/19 09:52:16;;;;;;;10.57;6.50;;;36.20;52.30;;;37.27;32.91;94882.81;5072307;28;20204;-62
2023/07/19 09:54:43;;;;;;;11.88;6.38;;;36.30;51.60;;;37.24;33.02;94881.50;5072654;28;20212;-69
2023/07/19 09:57:12;;;;;;;16.15;6.60;;;36.30;51.20;;;37.26;33.11;94872.94;5074012;28;20232;-62
2023/07/19 09:59:42;;;;;;;10.73;6.25;;;36.30;51.30;;;37.31;32.72;94870.09;5082506;28;20593;-62
2023/07/19 10:02:09;;;;;;;20.33;6.47;;;36.30;50.80;;;37.38;32.56;94875.97;5073442;28;20208;-63
2023/07/19 10:04:38;;;;;;;7.63;6.10;;;36.40;50.40;;;37.39;32.44;94874.03;5074959;28;20211;-59
2023/07/19 10:07:09;;;;;;;16.20;6.15;;;36.40;50.10;;;37.41;31.49;94863.56;5076937;28;20200;-60
2023/07/19 10:09:38;;;;;;;7.43;6.70;;;36.40;49.20;;;37.30;31.56;94863.78;5073878;28;20713;-72
2023/07/19 10:12:25;;;;;;;13.40;6.55;;;36.40;49.20;;;37.18;31.27;94859.94;5071282;28;20657;-61
2023/07/19 10:14:59;;;;;;;11.70;5.82;;;36.30;48.60;;;37.12;31.58;94859.25;5075465;28;20330;-71
2023/07/19 10:17:26;;;;;;;9.07;6.50;;;36.20;49.00;;;37.17;31.62;94853.66;5075890;28;20700;-61